Time;durP1;ratioP1;P1;durP2;ratioP2;P2;SDS_P1;SDS_P2;PMS_P1;PMS_P2;Temp;Humidity;BMP_temperature;BMP_pressure;BME280_temperature;BME280_humidity;BME280_pressure;Samples;Min_cycle;Max_cycle;Signal;HPM_P1;HPM_P2
2023/12/30 00:00:05;;;;;;;1.77;0.93;;;17.90;50.50;;;;;;5145151;27;45401;-63
2023/12/30 00:02:32;;;;;;;1.30;1.10;;;17.90;50.50;;;;;;5150040;27;45535;-63
2023/12/30 00:05:00;;;;;;;0.98;0.90;;;17.80;50.50;;;;;;5152934;27;45470;-64
2023/12/30 00:07:27;;;;;;;3.05;1.27;;;17.80;50.50;;;;;;5161359;27;46829;-64
2023/12/30 00:09:53;;;;;;;1.50;0.90;;;17.80;50.50;;;;;;5157050;27;45707;-65
2023/12/30 00:12:20;;;;;;;1.33;0.95;;;17.80;50.50;;;;;;5145310;27;45433;-63
2023/12/30 00:14:48;;;;;;;2.22;1.17;;;17.80;50.50;;;;;;5145382;27;45409;-64
2023/12/30 00:17:15;;;;;;;1.10;1.00;;;17.70;50.50;;;;;;5158628;27;47338;-65
2023/12/30 00:19:45;;;;;;;1.73;1.10;;;17.70;50.50;;;;;;5166110;27;45867;-63
2023/12/30 00:22:12;;;;;;;4.45;1.98;;;17.70;50.50;;;;;;5160972;27;45331;-64
2023/12/30 00:24:38;;;;;;;7.38;3.30;;;17.70;50.60;;;;;;5150511;27;45420;-65
2023/12/30 00:27:05;;;;;;;4.65;2.78;;;17.70;50.60;;;;;;5165136;27;46727;-64
2023/12/30 00:29:32;;;;;;;9.70;2.83;;;17.70;50.60;;;;;;5144518;27;45430;-64
2023/12/30 00:32:02;;;;;;;6.97;3.15;;;17.60;50.60;;;;;;5151974;27;45376;-67
2023/12/30 00:34:29;;;;;;;6.88;3.17;;;17.60;50.60;;;;;;5150156;27;45379;-66
2023/12/30 00:36:55;;;;;;;3.80;2.65;;;17.60;50.60;;;;;;5159140;27;45565;-64
2023/12/30 00:39:23;;;;;;;5.97;2.95;;;17.60;50.60;;;;;;5152390;27;45396;-66
2023/12/30 00:41:50;;;;;;;9.65;2.85;;;17.60;50.60;;;;;;5131855;27;45193;-64
2023/12/30 00:44:16;;;;;;;6.15;3.08;;;17.50;50.60;;;;;;5149108;27;45380;-65
2023/12/30 00:46:43;;;;;;;5.68;3.00;;;17.50;50.60;;;;;;5158229;27;45385;-65
2023/12/30 00:49:11;;;;;;;9.52;3.25;;;17.50;50.70;;;;;;5167492;27;45395;-65
2023/12/30 00:51:38;;;;;;;8.30;3.35;;;17.50;50.80;;;;;;5162960;27;45359;-66
2023/12/30 00:54:05;;;;;;;8.70;3.35;;;17.50;50.80;;;;;;5166139;27;45446;-65
2023/12/30 00:56:32;;;;;;;10.98;3.42;;;17.50;50.80;;;;;;5158682;27;45555;-66
2023/12/30 00:58:59;;;;;;;7.20;2.92;;;17.50;50.80;;;;;;5147541;27;45648;-65
2023/12/30 01:01:26;;;;;;;8.60;3.25;;;17.40;50.80;;;;;;5147647;27;45225;-66
2023/12/30 01:03:53;;;;;;;6.65;3.00;;;17.40;50.70;;;;;;5147695;27;45180;-66
2023/12/30 01:06:21;;;;;;;10.85;3.05;;;17.40;50.70;;;;;;5144639;27;46215;-65
2023/12/30 01:08:48;;;;;;;11.15;3.45;;;17.40;50.70;;;;;;5147282;27;45338;-66
2023/12/30 01:11:15;;;;;;;6.65;3.08;;;17.40;50.70;;;;;;5147481;27;45294;-65
2023/12/30 01:13:42;;;;;;;5.00;2.70;;;17.40;50.80;;;;;;5133563;27;45343;-65
2023/12/30 01:16:08;;;;;;;4.07;2.40;;;17.40;50.80;;;;;;5126323;27;46311;-67
2023/12/30 01:18:35;;;;;;;5.25;2.47;;;17.40;50.80;;;;;;5126363;27;45180;-65
2023/12/30 01:21:03;;;;;;;8.68;3.10;;;17.30;50.70;;;;;;5126343;27;45325;-66
2023/12/30 01:23:31;;;;;;;8.10;2.85;;;17.40;50.80;;;;;;5141643;27;45370;-66
2023/12/30 01:25:58;;;;;;;5.70;2.95;;;17.30;50.70;;;;;;5138439;27;45371;-66
2023/12/30 01:28:25;;;;;;;6.30;3.00;;;17.30;50.70;;;;;;5147229;27;45248;-66
2023/12/30 01:30:52;;;;;;;5.85;2.53;;;17.30;50.80;;;;;;5147029;27;45195;-66
2023/12/30 01:33:19;;;;;;;5.07;2.08;;;17.30;50.70;;;;;;5147437;27;45631;-67
2023/12/30 01:35:46;;;;;;;6.30;2.65;;;17.30;50.80;;;;;;5146778;27;45756;-67
2023/12/30 01:38:13;;;;;;;5.65;2.22;;;17.30;50.70;;;;;;5146906;27;45306;-65
2023/12/30 01:40:41;;;;;;;4.40;2.33;;;17.20;50.70;;;;;;5148471;27;45394;-65
2023/12/30 01:43:22;;;;;;;4.45;2.45;;;17.30;50.80;;;;;;5150803;27;45375;-66
2023/12/30 01:45:49;;;;;;;4.57;2.33;;;17.20;50.80;;;;;;5150215;27;46404;-67
2023/12/30 01:48:15;;;;;;;5.10;2.42;;;17.20;50.70;;;;;;5150323;27;45257;-65
2023/12/30 01:50:42;;;;;;;7.03;2.20;;;17.20;50.70;;;;;;5150579;27;45552;-66
2023/12/30 01:53:09;;;;;;;5.05;2.20;;;17.20;51.30;;;;;;5150758;27;45356;-66
2023/12/30 01:55:36;;;;;;;3.78;1.80;;;17.20;50.70;;;;;;5150161;27;46418;-66
2023/12/30 01:58:04;;;;;;;5.10;2.28;;;17.20;50.70;;;;;;5150331;27;45295;-67
2023/12/30 02:00:31;;;;;;;5.53;2.53;;;17.20;50.70;;;;;;5150348;27;45262;-66
2023/12/30 02:02:58;;;;;;;4.45;2.20;;;17.20;50.80;;;;;;5150449;27;45429;-67
2023/12/30 02:05:25;;;;;;;4.05;2.00;;;17.10;50.70;;;;;;5149903;27;46393;-65
2023/12/30 02:07:51;;;;;;;8.45;2.60;;;17.20;50.80;;;;;;5150009;27;45419;-65
2023/12/30 02:10:18;;;;;;;5.85;2.00;;;17.10;50.70;;;;;;5150262;27;45290;-66
2023/12/30 02:12:45;;;;;;;4.43;2.28;;;17.10;50.70;;;;;;5150234;27;45397;-66
2023/12/30 02:15:14;;;;;;;6.20;2.03;;;17.10;51.40;;;;;;5149878;27;45258;-66
2023/12/30 02:17:41;;;;;;;7.70;2.28;;;17.10;50.70;;;;;;5149762;27;45409;-65
2023/12/30 02:20:09;;;;;;;3.78;2.22;;;17.10;50.70;;;;;;5150146;27;45413;-65
2023/12/30 02:22:35;;;;;;;5.55;1.92;;;17.10;50.70;;;;;;5150017;27;45342;-66
2023/12/30 02:25:03;;;;;;;5.07;2.00;;;17.00;50.70;;;;;;5149599;27;46530;-66
2023/12/30 02:27:30;;;;;;;5.00;2.58;;;17.00;50.70;;;;;;5149615;27;45380;-65
2023/12/30 02:29:57;;;;;;;6.53;2.15;;;17.10;50.80;;;;;;5149827;27;45329;-65
2023/12/30 02:32:24;;;;;;;3.75;2.13;;;17.00;50.80;;;;;;5150144;27;45178;-65
2023/12/30 02:34:50;;;;;;;4.60;1.83;;;17.00;50.80;;;;;;5149518;27;45566;-65
2023/12/30 02:37:17;;;;;;;2.83;1.92;;;17.00;50.80;;;;;;5149729;27;45135;-66
2023/12/30 02:39:44;;;;;;;3.22;1.70;;;17.00;50.80;;;;;;5149688;27;45312;-66
2023/12/30 02:42:12;;;;;;;3.50;1.80;;;17.00;50.80;;;;;;5149740;27;45462;-66
2023/12/30 02:44:39;;;;;;;3.00;2.10;;;17.00;50.80;;;;;;5149435;27;45449;-66
2023/12/30 02:47:06;;;;;;;2.03;1.70;;;17.00;50.80;;;;;;5149269;27;45325;-66
2023/12/30 02:49:33;;;;;;;4.13;1.77;;;17.00;50.80;;;;;;5146639;27;45264;-66
2023/12/30 02:52:00;;;;;;;5.50;1.60;;;16.90;50.80;;;;;;5149531;27;45334;-66
2023/12/30 02:54:27;;;;;;;2.88;1.67;;;16.90;50.80;;;;;;5149230;27;45386;-67
2023/12/30 02:56:55;;;;;;;3.83;1.50;;;16.90;50.80;;;;;;5149196;27;45354;-66
2023/12/30 02:59:24;;;;;;;2.95;1.75;;;16.90;50.80;;;;;;5149318;27;45414;-66
2023/12/30 03:01:50;;;;;;;2.95;1.83;;;16.90;50.90;;;;;;5149472;27;45412;-66
2023/12/30 03:04:17;;;;;;;3.30;1.70;;;16.90;50.80;;;;;;5149076;27;45389;-66
2023/12/30 03:06:44;;;;;;;2.83;1.38;;;16.90;50.80;;;;;;5148999;27;45268;-66
2023/12/30 03:09:11;;;;;;;2.05;1.65;;;16.90;50.90;;;;;;5149217;27;45185;-66
2023/12/30 03:11:38;;;;;;;4.45;1.85;;;16.90;50.90;;;;;;5149351;27;45247;-65
2023/12/30 03:14:05;;;;;;;3.15;1.60;;;16.90;50.90;;;;;;5166355;27;45536;-66
2023/12/30 03:16:33;;;;;;;3.65;1.90;;;16.90;51.50;;;;;;5169906;27;45314;-66
2023/12/30 03:19:00;;;;;;;3.13;1.98;;;16.90;50.90;;;;;;5170150;27;45173;-67
2023/12/30 03:21:26;;;;;;;2.70;1.70;;;16.80;50.80;;;;;;5170152;27;45407;-66
2023/12/30 03:23:53;;;;;;;3.03;1.67;;;16.90;50.90;;;;;;5151238;27;45458;-66
2023/12/30 03:26:20;;;;;;;2.83;1.67;;;16.90;50.90;;;;;;5148639;27;45416;-66
2023/12/30 03:28:47;;;;;;;2.90;1.83;;;16.90;50.90;;;;;;5148676;27;45422;-65
2023/12/30 03:31:21;;;;;;;2.55;1.45;;;16.80;50.90;;;;;;5149016;27;45650;-67
2023/12/30 03:33:49;;;;;;;3.47;1.85;;;16.80;50.90;;;;;;5148576;27;46411;-66
2023/12/30 03:36:16;;;;;;;3.08;1.98;;;16.80;50.90;;;;;;5148644;27;45333;-67
2023/12/30 03:38:43;;;;;;;2.45;1.50;;;16.80;51.00;;;;;;5148723;27;45168;-67
2023/12/30 03:41:10;;;;;;;2.60;1.50;;;16.80;51.00;;;;;;5148710;27;45380;-66
2023/12/30 03:43:36;;;;;;;1.75;1.30;;;16.80;51.00;;;;;;5148461;27;45576;-66
2023/12/30 03:46:03;;;;;;;2.63;1.40;;;16.80;51.00;;;;;;5148299;27;45406;-66
2023/12/30 03:48:30;;;;;;;1.92;1.40;;;16.80;51.00;;;;;;5148908;27;45355;-66
2023/12/30 03:50:58;;;;;;;2.25;1.35;;;16.80;51.00;;;;;;5148844;27;45436;-65
2023/12/30 03:53:25;;;;;;;2.45;1.83;;;16.80;51.00;;;;;;5148501;27;45364;-65
2023/12/30 03:55:52;;;;;;;2.53;1.40;;;16.70;51.00;;;;;;5148706;27;45391;-66
2023/12/30 03:58:18;;;;;;;3.20;1.42;;;16.70;50.90;;;;;;5149091;27;45307;-67
2023/12/30 04:00:45;;;;;;;3.08;1.40;;;16.80;51.00;;;;;;5149205;27;45248;-66
2023/12/30 04:03:12;;;;;;;2.20;1.20;;;16.70;50.90;;;;;;5148284;27;46293;-66
2023/12/30 04:05:39;;;;;;;2.55;1.30;;;16.70;51.00;;;;;;5148793;27;45259;-66
2023/12/30 04:08:07;;;;;;;2.80;1.85;;;16.70;51.10;;;;;;5148660;27;45353;-67
2023/12/30 04:10:34;;;;;;;1.70;1.15;;;16.80;51.10;;;;;;5148958;27;45366;-66
2023/12/30 04:13:01;;;;;;;1.65;1.10;;;16.80;51.00;;;;;;5156497;27;46507;-66
2023/12/30 04:15:28;;;;;;;2.20;1.20;;;16.90;51.00;;;;;;5169153;27;45157;-66
2023/12/30 04:17:55;;;;;;;1.50;1.17;;;16.90;50.80;;;;;;5169075;27;45420;-66
2023/12/30 04:20:22;;;;;;;3.00;1.50;;;17.00;50.70;;;;;;5169240;27;45391;-66
2023/12/30 04:22:49;;;;;;;4.50;1.95;;;17.10;50.50;;;;;;5159783;27;46774;-66
2023/12/30 04:25:17;;;;;;;2.40;1.35;;;17.20;50.30;;;;;;5148274;27;45421;-66
2023/12/30 04:27:44;;;;;;;4.03;1.52;;;17.30;50.10;;;;;;5148340;27;45232;-65
2023/12/30 04:30:12;;;;;;;3.47;1.50;;;17.40;49.90;;;;;;5148428;27;45337;-67
2023/12/30 04:32:38;;;;;;;2.67;1.25;;;17.50;49.60;;;;;;5148094;27;45427;-66
2023/12/30 04:35:06;;;;;;;2.20;1.17;;;17.50;49.40;;;;;;5148246;27;45407;-66
2023/12/30 04:37:33;;;;;;;3.60;1.50;;;17.70;49.30;;;;;;5148177;27;45187;-66
2023/12/30 04:40:00;;;;;;;1.75;1.27;;;17.70;49.00;;;;;;5148004;27;45424;-66
2023/12/30 04:42:29;;;;;;;2.55;1.40;;;17.80;48.90;;;;;;5147883;27;46415;-66
2023/12/30 04:44:55;;;;;;;1.50;1.08;;;17.90;48.80;;;;;;5147891;27;45326;-66
2023/12/30 04:47:22;;;;;;;1.58;1.38;;;18.00;48.70;;;;;;5148592;27;45331;-67
2023/12/30 04:49:49;;;;;;;2.58;1.50;;;18.00;48.60;;;;;;5148178;27;45277;-66
2023/12/30 04:52:16;;;;;;;1.27;1.10;;;18.10;48.40;;;;;;5145128;27;45386;-66
2023/12/30 04:54:43;;;;;;;0.98;0.90;;;18.10;48.30;;;;;;5148003;27;45378;-66
2023/12/30 04:57:10;;;;;;;2.10;1.33;;;18.20;48.30;;;;;;5147915;27;45303;-66
2023/12/30 04:59:38;;;;;;;2.40;1.40;;;18.20;48.10;;;;;;5148054;27;45290;-66
2023/12/30 05:02:05;;;;;;;2.03;1.27;;;18.30;48.10;;;;;;5147621;27;46452;-66
2023/12/30 05:04:32;;;;;;;1.13;1.00;;;18.30;48.00;;;;;;5147926;27;45337;-66
2023/12/30 05:06:59;;;;;;;1.88;1.35;;;18.30;48.00;;;;;;5147584;27;45315;-66
2023/12/30 05:09:26;;;;;;;2.20;1.08;;;18.40;47.90;;;;;;5147888;27;45397;-66
2023/12/30 05:11:52;;;;;;;2.05;1.10;;;18.40;47.90;;;;;;5147474;27;45254;-66
2023/12/30 05:14:19;;;;;;;1.38;1.00;;;18.40;47.80;;;;;;5167402;27;45187;-66
2023/12/30 05:16:48;;;;;;;1.35;1.05;;;18.40;47.70;;;;;;5171981;27;45380;-66
2023/12/30 05:19:14;;;;;;;1.42;1.10;;;18.50;47.70;;;;;;5170268;27;45494;-66
2023/12/30 05:21:41;;;;;;;1.67;1.08;;;18.50;47.70;;;;;;5172684;27;46639;-67
2023/12/30 05:24:08;;;;;;;1.90;1.10;;;18.50;47.70;;;;;;5150993;27;45263;-66
2023/12/30 05:26:35;;;;;;;2.40;1.17;;;18.50;47.60;;;;;;5151135;27;45285;-66
2023/12/30 05:29:02;;;;;;;2.13;1.08;;;18.50;47.50;;;;;;5151145;27;45343;-66
2023/12/30 05:31:29;;;;;;;1.20;1.10;;;18.60;47.60;;;;;;5151086;27;46286;-66
2023/12/30 05:33:57;;;;;;;1.55;1.25;;;18.60;48.20;;;;;;5151214;27;45364;-66
2023/12/30 05:36:24;;;;;;;1.52;0.90;;;18.60;47.50;;;;;;5151103;27;45313;-67
2023/12/30 05:38:51;;;;;;;2.88;1.20;;;18.60;47.50;;;;;;5151312;27;45445;-66
2023/12/30 05:41:18;;;;;;;1.10;1.00;;;18.60;47.40;;;;;;5131280;27;46386;-67
2023/12/30 05:43:45;;;;;;;1.95;1.10;;;18.60;47.40;;;;;;5129780;27;45520;-66
2023/12/30 05:46:16;;;;;;;0.93;0.90;;;18.60;47.40;;;;;;5129628;27;45304;-66
2023/12/30 05:48:43;;;;;;;1.08;0.90;;;18.60;47.40;;;;;;5130014;27;45360;-66
2023/12/30 05:51:11;;;;;;;1.55;0.90;;;18.60;47.40;;;;;;5129524;27;46725;-66
2023/12/30 05:53:39;;;;;;;0.93;0.93;;;18.60;47.40;;;;;;5129788;27;45303;-66
2023/12/30 05:56:06;;;;;;;1.08;0.80;;;18.70;47.40;;;;;;5129557;27;45351;-67
2023/12/30 05:58:34;;;;;;;0.77;0.73;;;18.70;47.30;;;;;;5130183;27;45474;-66
2023/12/30 06:01:01;;;;;;;1.73;1.10;;;18.70;47.30;;;;;;5129631;27;45771;-67
2023/12/30 06:03:29;;;;;;;2.38;1.10;;;18.70;47.30;;;;;;5129951;27;45260;-67
2023/12/30 06:05:55;;;;;;;1.67;1.00;;;18.70;47.30;;;;;;5129646;27;45383;-66
2023/12/30 06:08:24;;;;;;;1.00;0.90;;;18.70;47.30;;;;;;5130020;27;45410;-67
2023/12/30 06:10:53;;;;;;;1.38;1.00;;;18.70;47.30;;;;;;5129775;27;46738;-68
2023/12/30 06:13:20;;;;;;;0.80;0.80;;;18.70;47.30;;;;;;5129468;27;45200;-67
2023/12/30 06:15:49;;;;;;;3.55;1.02;;;18.70;47.30;;;;;;5129836;27;45405;-67
2023/12/30 06:18:16;;;;;;;0.60;0.60;;;18.70;47.20;;;;;;5129797;27;45617;-66
2023/12/30 06:20:44;;;;;;;0.95;0.85;;;18.70;47.20;;;;;;5129721;27;45327;-67
2023/12/30 06:23:11;;;;;;;1.70;0.95;;;18.70;47.20;;;;;;5135315;27;45392;-66
2023/12/30 06:25:40;;;;;;;0.75;0.75;;;18.80;47.20;;;;;;5150104;27;45332;-66
2023/12/30 06:28:06;;;;;;;1.38;1.00;;;18.80;47.10;;;;;;5150887;27;45444;-66
2023/12/30 06:30:33;;;;;;;3.25;0.90;;;18.80;47.10;;;;;;5149779;27;46741;-66
2023/12/30 06:33:06;;;;;;;1.70;1.00;;;18.80;47.10;;;;;;5150015;27;45298;-67
2023/12/30 06:35:33;;;;;;;1.00;0.88;;;18.80;47.10;;;;;;5150381;27;45220;-66
2023/12/30 06:38:00;;;;;;;0.98;0.98;;;18.80;47.10;;;;;;5150176;27;45596;-66
2023/12/30 06:40:27;;;;;;;1.10;1.00;;;18.70;47.00;;;;;;5149640;27;45370;-66
2023/12/30 06:42:55;;;;;;;1.20;0.82;;;18.80;47.10;;;;;;5150033;27;45307;-66
2023/12/30 06:45:22;;;;;;;1.00;0.80;;;18.80;47.00;;;;;;5150158;27;45230;-67
2023/12/30 06:47:49;;;;;;;1.17;0.80;;;18.80;47.10;;;;;;5150162;27;45307;-66
2023/12/30 06:50:16;;;;;;;1.10;1.00;;;18.80;47.10;;;;;;5149893;27;47830;-66
2023/12/30 06:52:43;;;;;;;1.00;1.00;;;18.70;47.00;;;;;;5147122;27;45610;-66
2023/12/30 06:55:11;;;;;;;0.70;0.70;;;18.80;47.00;;;;;;5150062;27;45500;-66
2023/12/30 06:57:38;;;;;;;1.55;1.00;;;18.80;47.00;;;;;;5149880;27;45542;-66
2023/12/30 07:00:08;;;;;;;0.73;0.73;;;18.70;47.00;;;;;;5149509;27;46655;-66
2023/12/30 07:02:35;;;;;;;1.02;0.75;;;18.80;47.00;;;;;;5149596;27;45354;-66
2023/12/30 07:05:02;;;;;;;1.25;1.08;;;18.80;47.00;;;;;;5149809;27;45237;-66
2023/12/30 07:07:29;;;;;;;2.05;0.95;;;18.80;47.00;;;;;;5149945;27;45552;-66
2023/12/30 07:09:56;;;;;;;0.98;0.82;;;18.80;46.90;;;;;;5149323;27;46317;-66
2023/12/30 07:12:22;;;;;;;0.68;0.68;;;18.80;47.00;;;;;;5149257;27;45391;-67
2023/12/30 07:14:49;;;;;;;1.52;0.90;;;18.80;46.90;;;;;;5149466;27;45442;-66
2023/12/30 07:17:17;;;;;;;1.45;0.80;;;18.80;46.90;;;;;;5149305;27;45438;-66
2023/12/30 07:19:44;;;;;;;1.10;0.80;;;18.80;46.90;;;;;;5149222;27;46529;-66
2023/12/30 07:22:12;;;;;;;1.38;0.93;;;18.80;46.90;;;;;;5145377;27;45252;-66
2023/12/30 07:24:39;;;;;;;1.58;1.10;;;18.90;46.80;;;;;;5128887;27;45387;-66
2023/12/30 07:27:06;;;;;;;0.60;0.60;;;18.90;46.80;;;;;;5128646;27;45564;-66
2023/12/30 07:29:32;;;;;;;0.70;0.70;;;18.90;46.80;;;;;;5128214;27;46692;-66
2023/12/30 07:31:59;;;;;;;1.67;0.82;;;18.90;46.80;;;;;;5128499;27;45309;-66
2023/12/30 07:34:28;;;;;;;0.60;0.60;;;18.90;46.70;;;;;;5128324;27;45282;-66
2023/12/30 07:36:56;;;;;;;0.77;0.70;;;19.00;46.80;;;;;;5128263;27;45331;-66
2023/12/30 07:39:23;;;;;;;1.70;0.85;;;19.00;46.80;;;;;;5127272;27;47332;-66
2023/12/30 07:41:49;;;;;;;0.80;0.80;;;19.00;46.70;;;;;;5148111;27;45122;-66
2023/12/30 07:44:16;;;;;;;1.05;0.90;;;19.00;46.70;;;;;;5149051;27;45188;-66
2023/12/30 07:46:43;;;;;;;1.73;0.70;;;19.00;46.70;;;;;;5148821;27;45410;-67
2023/12/30 07:49:11;;;;;;;0.60;0.60;;;19.00;46.70;;;;;;5148538;27;46492;-66
2023/12/30 07:51:39;;;;;;;1.85;0.90;;;19.10;46.70;;;;;;5148603;27;45319;-66
2023/12/30 07:54:06;;;;;;;1.13;0.68;;;19.00;46.60;;;;;;5148814;27;45315;-66
2023/12/30 07:56:33;;;;;;;0.85;0.70;;;19.10;46.60;;;;;;5149016;27;45414;-66
2023/12/30 07:59:00;;;;;;;0.70;0.60;;;19.10;46.60;;;;;;5148169;27;45425;-66
2023/12/30 08:01:27;;;;;;;1.02;0.68;;;19.10;46.60;;;;;;5148251;27;45462;-66
2023/12/30 08:03:53;;;;;;;0.40;0.40;;;19.10;46.60;;;;;;5148880;27;45198;-66
2023/12/30 08:06:20;;;;;;;1.20;0.60;;;19.10;46.50;;;;;;5148746;27;45433;-66
2023/12/30 08:08:49;;;;;;;0.80;0.70;;;19.10;46.60;;;;;;5148318;27;45401;-66
2023/12/30 08:11:15;;;;;;;1.00;0.70;;;19.10;46.50;;;;;;5148386;27;45375;-67
2023/12/30 08:13:42;;;;;;;0.80;0.80;;;19.10;46.50;;;;;;5158711;27;45371;-67
2023/12/30 08:16:09;;;;;;;0.65;0.60;;;19.20;46.50;;;;;;5169972;27;45359;-66
2023/12/30 08:18:36;;;;;;;1.25;0.70;;;19.20;46.50;;;;;;5169226;27;46377;-67
2023/12/30 08:21:03;;;;;;;0.68;0.68;;;19.20;46.50;;;;;;5169763;27;45490;-66
2023/12/30 08:23:30;;;;;;;1.48;0.85;;;19.20;46.50;;;;;;5144866;27;45539;-66
2023/12/30 08:25:58;;;;;;;1.08;0.65;;;19.20;46.40;;;;;;5148598;27;45390;-66
2023/12/30 08:28:25;;;;;;;0.65;0.65;;;19.20;46.40;;;;;;5148323;27;47262;-66
2023/12/30 08:30:53;;;;;;;0.77;0.68;;;19.20;46.40;;;;;;5148224;27;45325;-66
2023/12/30 08:33:20;;;;;;;1.00;0.60;;;19.20;46.40;;;;;;5148737;27;45365;-66
2023/12/30 08:35:48;;;;;;;1.05;0.70;;;19.20;46.40;;;;;;5148683;27;45292;-66
2023/12/30 08:38:16;;;;;;;1.08;0.60;;;19.20;46.40;;;;;;5148104;27;45381;-66
2023/12/30 08:40:43;;;;;;;1.48;0.70;;;19.20;46.40;;;;;;5147638;27;45414;-66
2023/12/30 08:43:12;;;;;;;0.65;0.60;;;19.20;46.40;;;;;;5147905;27;45464;-66
2023/12/30 08:45:39;;;;;;;0.63;0.57;;;19.30;46.40;;;;;;5148117;27;45314;-66
2023/12/30 08:48:06;;;;;;;0.70;0.70;;;19.30;46.90;;;;;;5148010;27;46295;-66
2023/12/30 08:50:33;;;;;;;0.50;0.40;;;19.30;46.30;;;;;;5151106;27;45377;-66
2023/12/30 08:53:00;;;;;;;0.68;0.68;;;19.30;46.30;;;;;;5151974;27;45374;-66
2023/12/30 08:55:26;;;;;;;0.70;0.70;;;19.30;46.30;;;;;;5152084;27;45518;-66
2023/12/30 08:57:53;;;;;;;0.80;0.75;;;19.40;46.30;;;;;;5151453;27;46366;-66
2023/12/30 09:00:22;;;;;;;1.45;0.70;;;19.40;46.30;;;;;;5148786;27;45223;-66
2023/12/30 09:02:48;;;;;;;1.67;0.90;;;19.40;46.20;;;;;;5151965;27;45414;-66
2023/12/30 09:05:17;;;;;;;0.57;0.57;;;19.40;46.20;;;;;;5151831;27;45555;-66
2023/12/30 09:07:44;;;;;;;0.80;0.77;;;19.50;46.20;;;;;;5151421;27;46777;-66
2023/12/30 09:10:11;;;;;;;0.82;0.82;;;19.40;46.10;;;;;;5151504;27;45231;-66
2023/12/30 09:12:38;;;;;;;0.60;0.60;;;19.50;46.10;;;;;;5146918;27;45446;-67
2023/12/30 09:15:05;;;;;;;0.68;0.68;;;19.50;46.10;;;;;;5130939;27;45332;-66
2023/12/30 09:17:34;;;;;;;0.95;0.70;;;19.50;46.10;;;;;;5130520;27;45278;-66
2023/12/30 09:20:01;;;;;;;0.60;0.60;;;19.50;46.20;;;;;;5130463;27;45376;-67
2023/12/30 09:22:27;;;;;;;0.77;0.60;;;19.50;46.20;;;;;;5136631;27;45231;-66
2023/12/30 09:24:55;;;;;;;0.50;0.50;;;19.50;46.20;;;;;;5151075;27;45376;-67
2023/12/30 09:27:22;;;;;;;0.50;0.50;;;19.50;46.10;;;;;;5151303;27;46256;-66
2023/12/30 09:29:49;;;;;;;0.60;0.60;;;19.60;46.20;;;;;;5151245;27;45275;-66
2023/12/30 09:32:16;;;;;;;0.75;0.60;;;19.50;46.00;;;;;;5151460;27;45296;-67
2023/12/30 09:34:44;;;;;;;0.60;0.60;;;19.60;46.00;;;;;;5151476;27;45369;-67
2023/12/30 09:37:11;;;;;;;0.75;0.47;;;19.60;46.10;;;;;;5150830;27;46392;-66
2023/12/30 09:39:38;;;;;;;0.65;0.50;;;19.60;46.10;;;;;;5155554;27;45302;-67
2023/12/30 09:42:06;;;;;;;1.40;0.55;;;19.60;46.10;;;;;;5172145;27;45137;-66
2023/12/30 09:44:33;;;;;;;0.40;0.40;;;19.60;46.10;;;;;;5172287;27;45425;-68
2023/12/30 09:47:02;;;;;;;0.65;0.65;;;19.70;46.10;;;;;;5171706;27;47571;-67
2023/12/30 09:49:33;;;;;;;0.70;0.70;;;19.70;46.00;;;;;;5171929;27;45171;-67
2023/12/30 09:52:02;;;;;;;0.60;0.60;;;19.70;45.90;;;;;;5171937;27;45358;-67
2023/12/30 09:54:29;;;;;;;0.50;0.50;;;19.80;45.90;;;;;;5172077;27;45177;-67
2023/12/30 09:56:57;;;;;;;0.63;0.45;;;19.80;45.80;;;;;;5171490;27;46396;-66
2023/12/30 09:59:26;;;;;;;0.40;0.40;;;19.80;45.80;;;;;;5171287;27;45462;-67
2023/12/30 10:01:53;;;;;;;0.75;0.65;;;19.80;45.80;;;;;;5170595;27;45375;-67
2023/12/30 10:04:20;;;;;;;0.73;0.65;;;19.90;45.80;;;;;;5171972;27;45325;-66
2023/12/30 10:06:47;;;;;;;0.50;0.47;;;19.90;45.80;;;;;;5171049;27;45544;-67
2023/12/30 10:09:15;;;;;;;1.30;0.70;;;19.90;45.80;;;;;;5171541;27;45381;-66
2023/12/30 10:11:43;;;;;;;0.50;0.50;;;19.90;45.90;;;;;;5171427;27;45347;-67
2023/12/30 10:14:10;;;;;;;0.50;0.50;;;19.90;45.80;;;;;;5171801;27;45456;-67
2023/12/30 10:16:37;;;;;;;0.57;0.57;;;19.90;45.80;;;;;;5171141;27;46290;-67
2023/12/30 10:19:05;;;;;;;0.88;0.60;;;19.90;45.80;;;;;;5171615;27;45206;-67
2023/12/30 10:21:32;;;;;;;0.70;0.60;;;19.90;45.70;;;;;;5171742;27;45377;-67
2023/12/30 10:24:03;;;;;;;0.60;0.50;;;19.90;45.70;;;;;;5152395;27;45314;-67
2023/12/30 10:26:32;;;;;;;0.40;0.40;;;19.90;45.80;;;;;;5150017;27;45360;-66
2023/12/30 10:28:59;;;;;;;0.65;0.65;;;19.90;45.80;;;;;;5150209;27;45162;-66
2023/12/30 10:31:26;;;;;;;0.52;0.52;;;20.00;46.00;;;;;;5168377;27;45469;-66
2023/12/30 10:33:53;;;;;;;0.60;0.50;;;19.90;46.20;;;;;;5171738;27;45263;-66
2023/12/30 10:36:20;;;;;;;0.60;0.60;;;20.00;46.00;;;;;;5151866;27;45574;-66
2023/12/30 10:38:47;;;;;;;0.57;0.50;;;20.00;46.00;;;;;;5150288;27;45398;-66
2023/12/30 10:41:14;;;;;;;2.25;0.65;;;20.00;46.00;;;;;;5149579;27;45250;-66
2023/12/30 10:43:42;;;;;;;0.80;0.60;;;20.00;46.10;;;;;;5171473;27;45323;-67
2023/12/30 10:46:10;;;;;;;1.23;0.80;;;20.00;46.10;;;;;;5153314;27;47367;-65
2023/12/30 10:48:40;;;;;;;0.80;0.63;;;20.00;46.00;;;;;;5149744;27;45373;-65
2023/12/30 10:51:09;;;;;;;0.68;0.60;;;20.00;46.10;;;;;;5149518;27;45317;-66
2023/12/30 10:53:38;;;;;;;3.13;0.65;;;20.00;46.00;;;;;;5149881;27;45274;-67
2023/12/30 10:56:05;;;;;;;0.60;0.60;;;20.00;46.00;;;;;;5149286;27;45311;-66
2023/12/30 10:58:34;;;;;;;1.92;0.70;;;20.10;46.00;;;;;;5149391;27;45249;-67
2023/12/30 11:01:02;;;;;;;1.38;0.75;;;20.10;46.10;;;;;;5149752;27;45306;-64
2023/12/30 11:03:30;;;;;;;0.50;0.50;;;20.10;46.10;;;;;;5149202;27;45600;-64
2023/12/30 11:06:01;;;;;;;0.55;0.55;;;20.10;46.00;;;;;;5148902;27;46571;-63
2023/12/30 11:08:28;;;;;;;1.25;0.55;;;20.20;46.10;;;;;;5148848;27;45359;-64
2023/12/30 11:10:58;;;;;;;0.57;0.50;;;20.20;46.00;;;;;;5149000;27;45355;-65
2023/12/30 11:13:24;;;;;;;1.75;0.75;;;20.20;45.90;;;;;;5160588;27;45365;-65
2023/12/30 11:15:51;;;;;;;0.93;0.70;;;20.30;45.80;;;;;;5169749;27;46637;-66
2023/12/30 11:18:43;;;;;;;2.50;0.55;;;20.40;45.80;;;;;;5169787;27;45429;-65
2023/12/30 11:21:10;;;;;;;3.05;0.70;;;20.40;45.70;;;;;;5170271;27;45473;-66
2023/12/30 11:23:37;;;;;;;1.77;0.35;;;20.40;45.60;;;;;;5154255;27;45353;-65
2023/12/30 11:26:05;;;;;;;1.60;0.50;;;20.50;45.60;;;;;;5148431;27;46712;-63
2023/12/30 11:28:33;;;;;;;5.07;0.80;;;20.60;45.50;;;;;;5148900;27;45419;-66
2023/12/30 11:31:00;;;;;;;0.60;0.60;;;20.60;45.30;;;;;;5148811;27;45325;-65
2023/12/30 11:33:28;;;;;;;1.13;0.70;;;20.70;45.20;;;;;;5148862;27;45373;-65
2023/12/30 11:35:55;;;;;;;2.47;0.63;;;20.80;45.30;;;;;;5148572;27;45323;-65
2023/12/30 11:38:24;;;;;;;0.50;0.50;;;20.80;45.00;;;;;;5148981;27;45158;-66
2023/12/30 11:40:52;;;;;;;1.25;0.75;;;20.90;45.00;;;;;;5133095;27;45458;-66
2023/12/30 11:43:19;;;;;;;3.40;0.75;;;20.90;44.90;;;;;;5128140;27;45505;-65
2023/12/30 11:45:45;;;;;;;0.95;0.63;;;20.90;45.00;;;;;;5127802;27;45319;-65
2023/12/30 11:48:12;;;;;;;2.25;0.80;;;20.90;44.80;;;;;;5127803;27;45336;-65
2023/12/30 11:50:40;;;;;;;0.38;0.38;;;21.00;44.80;;;;;;5128177;27;45381;-65
2023/12/30 11:53:07;;;;;;;0.60;0.60;;;21.00;44.80;;;;;;5128371;27;45465;-65
2023/12/30 11:55:34;;;;;;;3.08;0.57;;;21.00;44.80;;;;;;5127620;27;45417;-66
2023/12/30 11:58:02;;;;;;;1.00;0.60;;;21.00;44.80;;;;;;5127723;27;45280;-65
2023/12/30 12:00:29;;;;;;;5.05;0.85;;;21.10;44.80;;;;;;5127786;27;45307;-66
2023/12/30 12:02:56;;;;;;;1.52;0.85;;;21.10;44.80;;;;;;5128022;27;45305;-66
2023/12/30 12:05:23;;;;;;;0.88;0.60;;;21.10;44.80;;;;;;5127491;27;45308;-66
2023/12/30 12:07:52;;;;;;;0.90;0.63;;;21.00;44.80;;;;;;5127691;27;45130;-66
2023/12/30 12:10:19;;;;;;;1.08;0.60;;;21.00;44.90;;;;;;5125233;27;45253;-66
2023/12/30 12:12:46;;;;;;;0.43;0.43;;;20.90;45.10;;;;;;5127725;27;45395;-65
2023/12/30 12:15:13;;;;;;;2.45;0.60;;;20.80;45.30;;;;;;5127486;27;46526;-66
2023/12/30 12:17:40;;;;;;;0.70;0.60;;;20.70;45.40;;;;;;5127383;27;45306;-65
2023/12/30 12:20:10;;;;;;;1.85;0.73;;;20.70;45.40;;;;;;5127459;27;45271;-65
2023/12/30 12:22:37;;;;;;;2.35;0.75;;;20.80;45.40;;;;;;5128090;27;45323;-66
2023/12/30 12:25:06;;;;;;;2.53;0.52;;;20.80;45.40;;;;;;5146950;27;45369;-65
2023/12/30 12:27:33;;;;;;;0.55;0.55;;;20.80;45.30;;;;;;5147788;27;45265;-65
2023/12/30 12:30:01;;;;;;;1.55;0.80;;;20.80;45.30;;;;;;5147999;27;45524;-65
2023/12/30 12:32:27;;;;;;;0.88;0.57;;;20.70;45.40;;;;;;5147918;27;45476;-65
2023/12/30 12:34:54;;;;;;;0.63;0.60;;;20.70;45.50;;;;;;5144200;27;45374;-65
2023/12/30 12:37:22;;;;;;;0.80;0.80;;;20.60;45.60;;;;;;5147600;27;45318;-68
2023/12/30 12:39:48;;;;;;;0.55;0.40;;;20.50;45.90;;;;;;5153718;27;45262;-64
2023/12/30 12:42:17;;;;;;;0.60;0.60;;;20.40;46.00;;;;;;5168756;27;45421;-65
2023/12/30 12:44:44;;;;;;;1.05;0.75;;;20.40;46.20;;;;;;5168616;27;46435;-67